createdAt,value
2018-08-28T00:00:56.365Z,16.80
2018-08-28T00:03:24.956Z,16.80
2018-08-28T00:05:52.485Z,16.80
2018-08-28T00:08:19.978Z,16.70
2018-08-28T00:10:47.498Z,16.60
2018-08-28T00:13:15.474Z,16.70
2018-08-28T00:15:42.978Z,16.70
2018-08-28T00:18:10.468Z,16.70
2018-08-28T00:20:38.511Z,16.60
2018-08-28T00:23:06.023Z,16.60
2018-08-28T00:25:33.551Z,16.60
2018-08-28T00:28:01.361Z,16.60
2018-08-28T00:30:28.879Z,16.70
2018-08-28T00:32:56.713Z,16.60
2018-08-28T00:35:25.536Z,16.70
2018-08-28T00:37:53.602Z,16.60
2018-08-28T00:40:21.548Z,16.70
2018-08-28T00:42:49.397Z,16.70
2018-08-28T00:45:16.931Z,16.80
2018-08-28T00:47:44.591Z,16.70
2018-08-28T00:50:12.417Z,16.70
2018-08-28T00:52:39.995Z,16.70
2018-08-28T00:55:07.538Z,16.70
2018-08-28T00:57:35.066Z,16.70
2018-08-28T01:00:02.623Z,16.70
2018-08-28T01:02:30.895Z,16.70
2018-08-28T01:04:58.404Z,16.70
2018-08-28T01:07:25.938Z,16.70
2018-08-28T01:09:53.456Z,16.70
2018-08-28T01:12:22.005Z,16.70
2018-08-28T01:14:49.527Z,16.70
2018-08-28T01:17:17.565Z,16.70
2018-08-28T01:19:45.482Z,16.80
2018-08-28T01:22:12.990Z,16.80
2018-08-28T01:24:40.903Z,16.80
2018-08-28T01:27:08.471Z,16.70
2018-08-28T01:29:36.633Z,16.70
2018-08-28T01:32:04.731Z,16.60
2018-08-28T01:34:32.239Z,16.60
2018-08-28T01:37:00.199Z,16.60
2018-08-28T01:39:27.743Z,16.50
2018-08-28T01:41:55.655Z,16.50
2018-08-28T01:44:24.135Z,16.50
2018-08-28T01:46:51.689Z,16.50
2018-08-28T01:49:20.377Z,16.40
2018-08-28T01:51:47.999Z,16.40
2018-08-28T01:54:15.551Z,16.40
2018-08-28T01:56:43.087Z,16.40
2018-08-28T01:59:10.818Z,16.40
2018-08-28T02:01:38.485Z,16.30
2018-08-28T02:04:07.266Z,16.30
2018-08-28T02:06:34.755Z,16.40
2018-08-28T02:09:02.362Z,16.30
2018-08-28T02:11:30.359Z,16.30
2018-08-28T02:13:57.839Z,16.30
2018-08-28T02:16:25.315Z,16.30
2018-08-28T02:18:52.888Z,16.30
2018-08-28T02:21:20.731Z,16.30
2018-08-28T02:23:48.619Z,16.20
2018-08-28T02:26:16.583Z,16.20
2018-08-28T02:28:45.008Z,16.20
2018-08-28T02:31:12.503Z,16.20
2018-08-28T02:33:40.600Z,16.20
2018-08-28T02:36:08.887Z,16.10
2018-08-28T02:38:37.089Z,16.10
2018-08-28T02:41:05.221Z,16.20
2018-08-28T02:43:33.168Z,16.10
2018-08-28T02:46:00.690Z,16.10
2018-08-28T02:48:28.722Z,16.10
2018-08-28T02:50:57.546Z,16.10
2018-08-28T02:53:25.090Z,16.10
2018-08-28T02:55:52.616Z,16.10
2018-08-28T02:58:20.113Z,16.10
2018-08-28T03:00:47.726Z,16.00
2018-08-28T03:10:02.328Z,16.00
2018-08-28T03:12:30.754Z,15.80
2018-08-28T03:14:58.318Z,15.80
2018-08-28T03:17:26.007Z,15.80
2018-08-28T03:19:53.909Z,15.80
2018-08-28T03:22:21.483Z,15.80
2018-08-28T03:24:49.469Z,15.80
2018-08-28T03:27:17.482Z,15.70
2018-08-28T03:29:46.482Z,15.70
2018-08-28T03:32:14.491Z,15.70
2018-08-28T03:34:42.020Z,15.70
2018-08-28T03:37:10.272Z,15.60
2018-08-28T03:39:37.807Z,15.70
2018-08-28T03:42:05.738Z,15.70
2018-08-28T03:44:33.931Z,15.70
2018-08-28T03:47:01.496Z,15.60
2018-08-28T03:49:29.565Z,15.60
2018-08-28T03:51:57.097Z,15.50
2018-08-28T03:54:24.672Z,15.50
2018-08-28T03:56:52.667Z,15.40
2018-08-28T03:59:20.178Z,15.40
2018-08-28T04:01:47.679Z,15.30
2018-08-28T04:04:15.449Z,15.30
2018-08-28T04:06:43.040Z,15.20
2018-08-28T04:09:10.955Z,15.20
2018-08-28T04:11:39.943Z,15.20
2018-08-28T04:14:07.477Z,15.20
2018-08-28T04:16:35.636Z,15.20
2018-08-28T04:19:03.192Z,15.20
2018-08-28T04:21:31.183Z,15.20
2018-08-28T04:23:59.087Z,15.20
2018-08-28T04:26:26.709Z,15.20
2018-08-28T04:28:54.623Z,15.20
2018-08-28T04:31:22.331Z,15.20
2018-08-28T04:33:49.872Z,15.20
2018-08-28T04:36:18.053Z,15.10
2018-08-28T04:38:45.555Z,15.10
2018-08-28T04:41:13.478Z,15.10
2018-08-28T04:43:41.507Z,15.20
2018-08-28T04:46:09.028Z,15.20
2018-08-28T04:48:36.880Z,15.20
2018-08-28T04:51:04.816Z,15.20
2018-08-28T04:53:32.321Z,15.30
2018-08-28T04:56:00.499Z,15.30
2018-08-28T04:58:28.000Z,15.30
2018-08-28T05:00:55.594Z,15.40
2018-08-28T05:03:24.594Z,15.40
2018-08-28T05:05:52.138Z,15.40
2018-08-28T05:08:19.683Z,15.40
2018-08-28T05:10:47.352Z,15.40
2018-08-28T05:13:15.843Z,15.40
2018-08-28T05:15:43.351Z,15.50
2018-08-28T05:18:10.891Z,15.50
2018-08-28T05:20:38.979Z,15.50
2018-08-28T05:23:06.984Z,15.50
2018-08-28T05:25:34.568Z,15.70
2018-08-28T05:28:02.547Z,15.80
2018-08-28T05:30:30.168Z,15.80
2018-08-28T05:32:57.659Z,15.90
2018-08-28T05:35:25.200Z,15.90
2018-08-28T05:37:53.333Z,15.90
2018-08-28T05:40:20.896Z,15.90
2018-08-28T05:42:48.844Z,15.90
2018-08-28T05:45:16.377Z,15.90
2018-08-28T05:47:43.904Z,15.90
2018-08-28T05:50:11.852Z,16.10
2018-08-28T05:52:39.356Z,16.10
2018-08-28T05:55:06.915Z,16.20
2018-08-28T05:57:34.836Z,16.20
2018-08-28T06:00:02.389Z,16.30
2018-08-28T06:02:30.243Z,16.30
2018-08-28T06:04:58.310Z,16.30
2018-08-28T06:07:26.008Z,16.30
2018-08-28T06:09:53.518Z,16.40
2018-08-28T06:12:21.475Z,16.40
2018-08-28T06:14:49.030Z,16.40
2018-08-28T06:17:16.864Z,16.50
2018-08-28T06:19:44.755Z,16.60
2018-08-28T06:22:12.624Z,16.60
2018-08-28T06:24:40.468Z,16.60
2018-08-28T06:27:07.992Z,16.70
2018-08-28T06:29:35.934Z,16.70
2018-08-28T06:32:03.823Z,16.80
2018-08-28T06:34:31.383Z,16.90
2018-08-28T06:36:59.531Z,17.00
2018-08-28T06:39:27.152Z,17.20
2018-08-28T06:41:55.028Z,17.30
2018-08-28T06:44:22.940Z,17.40
2018-08-28T06:46:50.471Z,17.40
2018-08-28T06:49:17.985Z,17.40
2018-08-28T06:51:45.572Z,17.40
2018-08-28T06:54:13.492Z,17.40
2018-08-28T06:56:41.135Z,17.30
2018-08-28T06:59:08.612Z,17.40
2018-08-28T07:01:36.180Z,17.50
2018-08-28T07:04:03.971Z,17.60
2018-08-28T07:06:31.672Z,17.80
2018-08-28T07:08:59.560Z,17.80
2018-08-28T07:11:28.092Z,17.90
2018-08-28T07:13:55.663Z,17.90
2018-08-28T07:16:24.472Z,18.00
2018-08-28T07:18:53.079Z,18.10
2018-08-28T07:21:20.955Z,18.20
2018-08-28T07:23:49.296Z,18.30
2018-08-28T07:26:16.832Z,18.30
2018-08-28T07:28:44.386Z,18.40
2018-08-28T07:31:11.938Z,18.50
2018-08-28T07:33:39.480Z,18.60
2018-08-28T07:36:07.128Z,18.70
2018-08-28T07:38:35.795Z,18.90
2018-08-28T07:41:03.684Z,18.90
2018-08-28T07:43:31.585Z,19.00
2018-08-28T07:45:59.135Z,19.10
2018-08-28T07:48:26.789Z,19.20
2018-08-28T07:50:54.979Z,19.20
2018-08-28T07:53:22.560Z,19.20
2018-08-28T07:55:50.433Z,19.20
2018-08-28T07:58:18.012Z,19.30
2018-08-28T08:00:45.860Z,19.30
2018-08-28T08:03:14.109Z,19.30
2018-08-28T08:05:41.636Z,19.40
2018-08-28T08:08:09.250Z,19.50
2018-08-28T08:10:37.186Z,19.60
2018-08-28T08:13:05.276Z,19.80
2018-08-28T08:15:33.150Z,19.80
2018-08-28T08:18:00.686Z,19.90
2018-08-28T08:20:28.715Z,20.00
2018-08-28T08:22:56.249Z,20.00
2018-08-28T08:25:23.779Z,20.10
2018-08-28T08:27:51.369Z,20.10
2018-08-28T08:30:19.028Z,20.20
2018-08-28T08:32:46.936Z,20.30
2018-08-28T08:35:14.494Z,20.50
2018-08-28T08:37:42.390Z,20.50
2018-08-28T08:40:09.928Z,20.60
2018-08-28T08:42:38.091Z,20.60
2018-08-28T08:45:06.372Z,20.70
2018-08-28T08:47:33.883Z,20.80
2018-08-28T08:50:01.448Z,20.80
2018-08-28T08:52:29.004Z,20.90
2018-08-28T08:54:56.765Z,21.00
2018-08-28T08:57:24.431Z,21.00
2018-08-28T08:59:51.904Z,21.10
2018-08-28T09:02:19.449Z,21.30
2018-08-28T09:04:47.837Z,21.40
2018-08-28T09:07:15.636Z,21.50
2018-08-28T09:09:43.627Z,21.60
2018-08-28T09:12:12.102Z,21.70
2018-08-28T09:14:39.657Z,21.70
2018-08-28T09:17:07.654Z,21.80
2018-08-28T09:19:35.500Z,21.90
2018-08-28T09:22:03.568Z,22.00
2018-08-28T09:24:31.236Z,22.00
2018-08-28T09:27:00.492Z,22.00
2018-08-28T09:29:28.632Z,22.10
2018-08-28T09:31:56.668Z,22.20
2018-08-28T09:34:24.164Z,22.30
2018-08-28T09:36:52.596Z,22.40
2018-08-28T09:39:20.096Z,22.50
2018-08-28T09:41:47.643Z,22.60
2018-08-28T09:44:15.516Z,22.70
2018-08-28T09:46:43.024Z,22.70
2018-08-28T09:49:10.648Z,22.80
2018-08-28T09:51:38.176Z,22.80
2018-08-28T09:54:06.120Z,23.00
2018-08-28T09:56:34.147Z,23.10
2018-08-28T09:59:01.630Z,23.20
2018-08-28T10:01:34.972Z,23.20
2018-08-28T10:04:02.552Z,23.30
2018-08-28T10:06:30.172Z,23.30
2018-08-28T10:08:58.140Z,23.30
2018-08-28T10:11:26.216Z,23.50
2018-08-28T10:13:53.742Z,23.50
2018-08-28T10:16:21.828Z,23.60
2018-08-28T10:18:49.324Z,23.60
2018-08-28T10:21:17.268Z,23.60
2018-08-28T10:23:45.150Z,23.70
2018-08-28T10:26:13.124Z,23.70
2018-08-28T10:28:40.723Z,23.70
2018-08-28T10:31:08.966Z,23.80
2018-08-28T10:33:37.884Z,23.90
2018-08-28T10:36:05.536Z,24.00
2018-08-28T10:38:33.923Z,24.10
2018-08-28T10:41:01.472Z,24.10
2018-08-28T10:43:30.228Z,24.00
2018-08-28T10:45:57.888Z,24.00
2018-08-28T10:48:25.503Z,24.10
2018-08-28T10:50:53.096Z,24.20
2018-08-28T10:53:20.646Z,24.30
2018-08-28T10:55:48.524Z,24.40
2018-08-28T10:58:16.042Z,24.40
2018-08-28T11:00:43.698Z,24.40
2018-08-28T11:03:11.323Z,24.50
2018-08-28T11:05:39.758Z,24.60
2018-08-28T11:08:08.243Z,24.70
2018-08-28T11:10:35.769Z,24.70
2018-08-28T11:13:04.004Z,24.80
2018-08-28T11:15:31.604Z,24.80
2018-08-28T11:17:59.112Z,24.80
2018-08-28T11:20:28.651Z,24.80
2018-08-28T11:22:56.242Z,24.80
2018-08-28T11:25:24.186Z,24.80
2018-08-28T11:27:52.025Z,24.90
2018-08-28T11:30:19.683Z,24.90
2018-08-28T11:32:47.295Z,24.90
2018-08-28T11:35:15.544Z,24.90
2018-08-28T11:37:43.552Z,25.00
2018-08-28T11:40:11.163Z,25.00
2018-08-28T11:42:39.057Z,25.10
2018-08-28T11:45:07.168Z,25.20
2018-08-28T11:47:34.720Z,25.20
2018-08-28T11:50:02.325Z,25.30
2018-08-28T11:52:30.449Z,25.40
2018-08-28T11:54:58.482Z,25.50
2018-08-28T11:57:26.024Z,25.50
2018-08-28T11:59:54.270Z,25.40
2018-08-28T12:02:26.238Z,25.40
2018-08-28T12:04:54.148Z,25.40
2018-08-28T12:07:21.758Z,25.50
2018-08-28T12:09:49.751Z,25.40
2018-08-28T12:12:17.656Z,25.60
2018-08-28T12:14:45.722Z,25.50
2018-08-28T12:17:13.278Z,25.60
2018-08-28T12:19:40.825Z,25.70
2018-08-28T12:22:08.731Z,25.80
2018-08-28T12:24:37.109Z,25.80
2018-08-28T12:27:05.562Z,25.70
2018-08-28T12:29:33.109Z,25.90
2018-08-28T12:32:00.575Z,25.90
2018-08-28T12:34:28.695Z,25.90
2018-08-28T12:36:56.672Z,25.80
2018-08-28T12:39:24.102Z,25.80
2018-08-28T12:41:51.601Z,25.70
2018-08-28T12:44:19.946Z,25.90
2018-08-28T12:46:47.459Z,25.90
2018-08-28T12:49:15.666Z,25.90
2018-08-28T12:51:43.185Z,25.90
2018-08-28T12:54:10.684Z,26.00
2018-08-28T12:56:38.267Z,26.00
2018-08-28T12:59:05.800Z,26.10
2018-08-28T13:01:33.838Z,26.20
2018-08-28T13:04:01.899Z,26.20
2018-08-28T13:06:29.553Z,26.20
2018-08-28T13:08:57.631Z,26.10
2018-08-28T13:11:26.192Z,26.30
2018-08-28T13:13:53.708Z,26.50
2018-08-28T13:16:22.008Z,26.30
2018-08-28T13:18:49.496Z,26.40
2018-08-28T13:21:17.526Z,26.40
2018-08-28T13:23:45.216Z,26.60
2018-08-28T13:26:12.726Z,26.50
2018-08-28T13:28:40.800Z,26.50
2018-08-28T13:31:08.326Z,26.60
2018-08-28T13:33:36.267Z,26.50
2018-08-28T13:36:03.800Z,26.70
2018-08-28T13:38:31.760Z,26.70
2018-08-28T13:40:59.288Z,26.70
2018-08-28T13:43:27.315Z,26.70
2018-08-28T13:45:54.873Z,26.70
2018-08-28T13:48:23.207Z,26.70
2018-08-28T13:50:50.755Z,26.80
2018-08-28T13:53:18.369Z,26.60
2018-08-28T13:57:15.425Z,26.70
2018-08-28T13:59:43.305Z,26.70
2018-08-28T14:02:11.280Z,26.70
2018-08-28T14:04:38.776Z,26.70
2018-08-28T14:07:06.798Z,26.80
2018-08-28T14:09:35.124Z,26.70
2018-08-28T14:12:04.062Z,26.70
2018-08-28T14:16:01.347Z,26.80
2018-08-28T14:18:28.995Z,27.20
2018-08-28T14:20:57.161Z,27.60
2018-08-28T14:23:26.205Z,28.00
2018-08-28T14:25:54.996Z,28.10
2018-08-28T14:28:22.523Z,28.30
2018-08-28T14:30:50.115Z,28.50
2018-08-28T14:33:17.690Z,28.50
2018-08-28T14:35:45.363Z,28.90
2018-08-28T14:38:13.409Z,29.10
2018-08-28T14:40:41.573Z,29.40
2018-08-28T14:43:10.288Z,29.60
2018-08-28T14:45:38.439Z,29.80
2018-08-28T14:48:06.017Z,30.10
2018-08-28T14:50:33.591Z,30.20
2018-08-28T14:53:01.157Z,30.20
2018-08-28T14:55:29.159Z,30.10
2018-08-28T14:57:57.263Z,30.20
2018-08-28T15:00:24.808Z,29.90
2018-08-28T15:02:53.189Z,30.20
2018-08-28T15:05:20.741Z,30.30
2018-08-28T15:07:48.312Z,30.40
2018-08-28T15:10:16.002Z,30.40
2018-08-28T15:12:44.573Z,30.40
2018-08-28T15:15:12.815Z,30.50
2018-08-28T15:17:41.510Z,30.70
2018-08-28T15:20:09.098Z,30.90
2018-08-28T15:22:37.491Z,30.90
2018-08-28T15:25:05.687Z,30.70
2018-08-28T15:27:33.325Z,30.80
2018-08-28T15:30:00.868Z,30.80
2018-08-28T15:32:29.607Z,30.60
2018-08-28T15:34:57.686Z,30.80
2018-08-28T15:37:25.723Z,30.70
2018-08-28T15:39:53.374Z,30.90
2018-08-28T15:42:21.368Z,30.80
2018-08-28T15:44:48.867Z,30.80
2018-08-28T15:47:16.408Z,30.70
2018-08-28T15:49:44.003Z,30.90
2018-08-28T15:52:11.527Z,30.80
2018-08-28T15:54:40.219Z,30.70
2018-08-28T15:57:08.771Z,30.50
2018-08-28T15:59:40.235Z,30.60
2018-08-28T16:02:09.855Z,30.40
2018-08-28T16:04:37.492Z,30.50
2018-08-28T16:07:05.889Z,30.30
2018-08-28T16:09:33.427Z,30.40
2018-08-28T16:12:01.312Z,30.40
2018-08-28T16:14:28.824Z,30.40
2018-08-28T16:16:56.331Z,30.40
2018-08-28T16:19:24.562Z,29.70
2018-08-28T16:21:56.581Z,28.80
2018-08-28T16:24:24.111Z,28.10
2018-08-28T16:26:52.325Z,27.50
2018-08-28T16:29:19.908Z,27.10
2018-08-28T16:31:47.462Z,26.70
2018-08-28T16:34:15.089Z,26.40
2018-08-28T16:36:42.988Z,26.20
2018-08-28T16:39:10.687Z,25.90
2018-08-28T16:41:38.922Z,25.70
2018-08-28T16:44:07.245Z,25.50
2018-08-28T16:46:35.167Z,25.30
2018-08-28T16:49:02.714Z,25.10
2018-08-28T16:51:30.604Z,25.00
2018-08-28T16:53:58.824Z,24.80
2018-08-28T16:56:26.784Z,24.70
2018-08-28T16:58:54.770Z,24.60
2018-08-28T17:01:22.366Z,24.50
2018-08-28T17:03:49.936Z,24.30
2018-08-28T17:06:17.524Z,24.20
2018-08-28T17:08:45.044Z,24.10
2018-08-28T17:11:13.400Z,24.00
2018-08-28T17:13:41.809Z,23.90
2018-08-28T17:16:09.342Z,23.80
2018-08-28T17:18:36.956Z,23.70
2018-08-28T17:21:05.404Z,23.60
2018-08-28T17:23:32.972Z,23.50
2018-08-28T17:26:00.528Z,23.20
2018-08-28T17:28:28.344Z,23.00
2018-08-28T17:30:55.922Z,22.90
2018-08-28T17:33:23.517Z,22.80
2018-08-28T17:35:51.016Z,22.70
2018-08-28T17:38:19.180Z,22.50
2018-08-28T17:40:47.231Z,22.40
2018-08-28T17:43:15.179Z,22.30
2018-08-28T17:45:43.332Z,22.20
2018-08-28T17:48:11.260Z,22.10
2018-08-28T17:50:39.215Z,22.10
2018-08-28T17:53:06.774Z,21.70
2018-08-28T17:55:34.711Z,21.60
2018-08-28T17:58:02.816Z,21.40
2018-08-28T18:00:30.343Z,21.40
2018-08-28T18:02:57.927Z,21.20
2018-08-28T18:05:25.479Z,21.10
2018-08-28T18:07:53.090Z,21.00
2018-08-28T18:10:20.627Z,21.00
2018-08-28T18:12:48.777Z,20.80
2018-08-28T18:15:16.328Z,20.70
2018-08-28T18:17:43.841Z,20.50
2018-08-28T18:20:11.891Z,20.40
2018-08-28T18:22:39.929Z,20.30
2018-08-28T18:25:07.888Z,20.30
2018-08-28T18:27:35.405Z,20.10
2018-08-28T18:30:02.994Z,20.00
2018-08-28T18:32:30.825Z,19.90
2018-08-28T18:34:58.437Z,19.80
2018-08-28T18:37:26.496Z,19.70
2018-08-28T18:39:54.553Z,19.60
2018-08-28T18:42:22.728Z,19.60
2018-08-28T18:44:51.302Z,19.50
2018-08-28T18:47:19.156Z,19.40
2018-08-28T18:49:47.189Z,19.40
2018-08-28T18:52:15.262Z,19.30
2018-08-28T18:54:43.362Z,19.20
2018-08-28T18:57:10.908Z,19.10
2018-08-28T18:59:38.432Z,19.10
2018-08-28T19:02:05.984Z,19.00
2018-08-28T19:04:33.521Z,18.90
2018-08-28T19:07:01.776Z,18.90
2018-08-28T19:09:29.304Z,18.80
2018-08-28T19:11:57.450Z,18.80
2018-08-28T19:14:25.119Z,18.70
2018-08-28T19:16:52.800Z,18.70
2018-08-28T19:19:20.334Z,18.60
2018-08-28T19:21:48.174Z,18.60
2018-08-28T19:24:16.073Z,18.60
2018-08-28T19:26:44.161Z,18.50
2018-08-28T19:29:11.716Z,18.30
2018-08-28T19:31:39.344Z,18.30
2018-08-28T19:34:06.881Z,18.20
2018-08-28T19:36:34.800Z,18.20
2018-08-28T19:39:03.065Z,18.00
2018-08-28T19:41:30.717Z,18.00
2018-08-28T19:43:59.656Z,17.90
2018-08-28T19:46:27.515Z,17.80
2018-08-28T19:48:55.072Z,17.80
2018-08-28T19:51:23.208Z,17.80
2018-08-28T19:53:51.155Z,17.80
2018-08-28T19:56:18.745Z,17.80
2018-08-28T19:58:46.832Z,17.70
2018-08-28T20:01:14.503Z,17.60
2018-08-28T20:03:42.048Z,17.60
2018-08-28T20:06:09.705Z,17.50
2018-08-28T20:08:38.267Z,17.60
2018-08-28T20:11:06.301Z,17.50
2018-08-28T20:13:33.820Z,17.40
2018-08-28T20:16:02.018Z,17.40
2018-08-28T20:18:29.569Z,17.40
2018-08-28T20:20:57.812Z,17.30
2018-08-28T20:23:26.200Z,17.20
2018-08-28T20:25:54.382Z,17.20
2018-08-28T20:28:21.903Z,17.20
2018-08-28T20:30:49.441Z,17.10
2018-08-28T20:33:17.004Z,17.10
2018-08-28T20:35:44.681Z,17.10
2018-08-28T20:38:13.264Z,17.00
2018-08-28T20:40:42.000Z,17.00
2018-08-28T20:43:11.530Z,17.00
2018-08-28T20:45:39.105Z,16.90
2018-08-28T20:48:07.029Z,16.90
2018-08-28T20:50:34.608Z,16.90
2018-08-28T20:53:02.280Z,16.90
2018-08-28T20:55:30.213Z,16.80
2018-08-28T20:57:58.415Z,16.70
2018-08-28T21:00:28.060Z,16.60
2018-08-28T21:02:55.763Z,16.50
2018-08-28T21:05:27.737Z,16.60
2018-08-28T21:07:57.112Z,16.50
2018-08-28T21:10:24.713Z,16.50
2018-08-28T21:12:52.959Z,16.40
2018-08-28T21:15:21.281Z,16.40
2018-08-28T21:17:50.093Z,16.20
2018-08-28T21:20:18.376Z,16.30
2018-08-28T21:22:46.956Z,16.30
2018-08-28T21:25:15.020Z,16.30
2018-08-28T21:27:42.792Z,16.20
2018-08-28T21:30:10.827Z,16.30
2018-08-28T21:32:38.488Z,16.20
2018-08-28T21:35:06.891Z,16.20
2018-08-28T21:37:35.230Z,16.20
2018-08-28T21:40:04.291Z,16.20
2018-08-28T21:42:32.342Z,16.20
2018-08-28T21:45:00.478Z,16.10
2018-08-28T21:47:28.130Z,16.00
2018-08-28T21:49:55.737Z,16.00
2018-08-28T21:52:24.445Z,16.00
2018-08-28T21:54:51.979Z,15.90
2018-08-28T21:57:19.595Z,15.90
2018-08-28T21:59:47.298Z,15.80
2018-08-28T22:02:14.875Z,15.80
2018-08-28T22:04:43.979Z,15.80
2018-08-28T22:07:17.995Z,15.60
2018-08-28T22:09:45.848Z,15.70
2018-08-28T22:12:13.715Z,15.70
2018-08-28T22:14:42.024Z,15.70
2018-08-28T22:17:09.920Z,15.70
2018-08-28T22:19:38.352Z,15.60
2018-08-28T22:22:06.505Z,15.60
2018-08-28T22:24:34.117Z,15.60
2018-08-28T22:27:02.658Z,15.60
2018-08-28T22:29:30.755Z,15.60
2018-08-28T22:31:58.480Z,15.50
2018-08-28T22:34:26.362Z,15.50
2018-08-28T22:36:54.674Z,15.50
2018-08-28T22:39:23.171Z,15.50
2018-08-28T22:41:50.705Z,15.50
2018-08-28T22:44:19.131Z,15.50
2018-08-28T22:46:47.304Z,15.40
2018-08-28T22:49:15.377Z,15.40
2018-08-28T22:51:42.904Z,15.40
2018-08-28T22:54:10.397Z,15.40
2018-08-28T22:56:38.631Z,15.40
2018-08-28T22:59:07.669Z,15.40
2018-08-28T23:01:35.195Z,15.30
2018-08-28T23:04:02.722Z,15.20
2018-08-28T23:06:30.947Z,15.20
2018-08-28T23:08:58.495Z,15.20
2018-08-28T23:11:26.555Z,15.20
2018-08-28T23:13:54.392Z,15.10
2018-08-28T23:16:21.905Z,15.00
2018-08-28T23:18:49.453Z,15.00
2018-08-28T23:21:17.451Z,15.00
2018-08-28T23:23:46.203Z,15.00
2018-08-28T23:26:13.724Z,14.90
2018-08-28T23:28:41.355Z,14.90
2018-08-28T23:31:09.163Z,14.90
2018-08-28T23:33:37.163Z,14.90
2018-08-28T23:36:05.707Z,14.90
2018-08-28T23:38:34.838Z,14.80
2018-08-28T23:41:02.367Z,14.80
2018-08-28T23:43:30.312Z,14.80
2018-08-28T23:45:58.127Z,14.80
2018-08-28T23:48:26.063Z,14.80
2018-08-28T23:50:53.594Z,14.80
2018-08-28T23:53:21.106Z,14.70
2018-08-28T23:55:48.647Z,14.60
2018-08-28T23:58:16.163Z,14.60
